Time;durP1;ratioP1;P1;durP2;ratioP2;P2;SDS_P1;SDS_P2;PMS_P1;PMS_P2;Temp;Humidity;BMP_temperature;BMP_pressure;BME280_temperature;BME280_humidity;BME280_pressure;Samples;Min_cycle;Max_cycle;Signal;HPM_P1;HPM_P2
2023/11/22 00:01:04;;;;;;;;;;;;;;;28.27;64.74;100897.41;5041105;28;69816;-38
2023/11/22 00:03:34;;;;;;;;;;;;;;;28.18;66.15;100908.59;5042078;28;66804;-37
2023/11/22 00:06:04;;;;;;;;;;;;;;;28.12;66.53;100898.63;5040116;28;70381;-37
2023/11/22 00:08:34;;;;;;;;;;;;;;;28.08;66.31;100908.94;5040984;28;67060;-38
2023/11/22 00:11:05;;;;;;;;;;;;;;;28.14;66.23;100904.63;5039285;28;71009;-36
2023/11/22 00:13:35;;;;;;;;;;;;;;;28.18;63.17;100914.81;5039864;28;65291;-37
2023/11/22 00:16:04;;;;;;;;;;;;;;;28.24;60.85;100913.19;5041171;28;69240;-38
2023/11/22 00:18:38;;;;;;;;;;;;;;;28.30;59.96;100920.47;5041575;28;66632;-38
2023/11/22 00:21:09;;;;;;;;;;;;;;;28.00;59.55;100868.69;5039603;28;70421;-37
2023/11/22 00:23:39;;;;;;;;;;;;;;;28.39;59.93;100935.44;5040369;28;66491;-37
2023/11/22 00:26:08;;;;;;;;;;;;;;;28.43;59.79;100925.94;5041378;28;69476;-37
2023/11/22 00:28:42;;;;;;;;;;;;;;;28.47;59.29;100935.31;5040610;28;66340;-37
2023/11/22 00:31:14;;;;;;;;;;;;;;;28.50;59.36;100948.38;5039969;28;70948;-37
2023/11/22 00:33:44;;;;;;;;;;;;;;;28.54;59.91;100943.41;5040996;28;66631;-37
2023/11/22 00:36:13;;;;;;;;;;;;;;;28.58;59.83;100946.53;5040349;28;70481;-37
2023/11/22 00:38:43;;;;;;;;;;;;;;;28.61;59.61;100949.66;5022760;28;68073;-38
2023/11/22 00:41:14;;;;;;;;;;;;;;;28.65;59.39;100952.78;5010266;28;70076;-37
2023/11/22 00:43:44;;;;;;;;;;;;;;;28.66;59.90;100954.44;5020627;28;65332;-36
2023/11/22 00:46:14;;;;;;;;;;;;;;;28.70;59.51;100961.13;5021672;28;69966;-36
2023/11/22 00:48:45;;;;;;;;;;;;;;;28.71;59.43;100962.75;5022413;28;66695;-38
2023/11/22 00:51:15;;;;;;;;;;;;;;;28.73;59.58;100968.81;5055991;28;70642;-37
2023/11/22 00:53:45;;;;;;;;;;;;;;;28.76;59.49;100967.56;5034531;28;66862;-37
2023/11/22 00:56:15;;;;;;;;;;;;;;;28.78;59.79;100968.16;5015384;28;70521;-38
2023/11/22 00:58:45;;;;;;;;;;;;;;;28.79;59.88;100965.28;5003966;28;66050;-38
2023/11/22 01:01:14;;;;;;;;;;;;;;;28.81;60.11;100974.00;5039754;28;70206;-37
2023/11/22 01:03:44;;;;;;;;;;;;;;;28.82;60.09;100975.66;5038481;28;66738;-37
2023/11/22 01:06:14;;;;;;;;;;;;;;;28.84;59.52;100979.00;5027741;28;70103;-36
2023/11/22 01:08:44;;;;;;;;;;;;;;;28.85;60.06;100977.97;5035886;28;66194;-38
2023/11/22 01:11:14;;;;;;;;;;;;;;;28.87;59.93;100984.00;5013436;28;69613;-38
2023/11/22 01:13:43;;;;;;;;;;;;;;;28.87;59.85;100975.88;5019343;28;66512;-37
2023/11/22 01:16:13;;;;;;;;;;;;;;;28.89;59.43;100981.94;5037155;28;69419;-37
2023/11/22 01:18:45;;;;;;;;;;;;;;;28.90;59.75;100982.75;5034452;28;66797;-37
2023/11/22 01:21:15;;;;;;;;;;;;;;;28.91;59.32;100989.81;5037778;28;70659;-38
2023/11/22 01:23:46;;;;;;;;;;;;;;;28.92;59.63;100986.91;5037314;28;66681;-38
2023/11/22 01:26:16;;;;;;;;;;;;;;;28.27;59.22;100885.78;5034947;28;71777;-37
2023/11/22 01:28:46;;;;;;;;;;;;;;;28.94;59.70;100995.63;5031255;28;66746;-37
2023/11/22 01:31:20;;;;;;;;;;;;;;;28.94;59.62;100989.41;5032606;28;70606;-37
2023/11/22 01:33:50;;;;;;;;;;;;;;;28.96;59.16;100987.34;5025275;28;66187;-38
2023/11/22 01:36:20;;;;;;;;;;;;;;;28.98;59.61;100989.84;5036760;28;69947;-37
2023/11/22 01:38:50;;;;;;;;;;;;;;;28.99;59.18;100991.50;5038620;28;66633;-38
2023/11/22 01:41:20;;;;;;;;;;;;;;;29.00;59.57;100987.75;5016186;28;69880;-37
2023/11/22 01:43:50;;;;;;;;;;;;;;;29.01;59.33;100989.44;5038342;28;65818;-37
2023/11/22 01:46:24;;;;;;;;;;;;;;;29.02;59.35;101001.88;5036473;28;70521;-37
2023/11/22 01:48:56;;;;;;;;;;;;;;;29.03;59.27;100988.22;5037391;28;66487;-37
2023/11/22 01:51:26;;;;;;;;;;;;;;;29.04;59.15;100994.44;5037749;28;70657;-37
2023/11/22 01:53:57;;;;;;;;;;;;;;;29.05;59.00;101006.91;5038724;28;66807;-37
2023/11/22 01:56:27;;;;;;;;;;;;;;;29.07;58.97;101002.13;5037501;28;70320;-37
2023/11/22 01:58:57;;;;;;;;;;;;;;;29.07;59.30;101005.66;5038224;28;66555;-36
2023/11/22 02:01:28;;;;;;;;;;;;;;;29.08;58.79;101007.31;5048398;28;70729;-36
2023/11/22 02:03:58;;;;;;;;;;;;;;;29.10;59.22;101004.44;5015292;28;65741;-36
2023/11/22 02:06:31;;;;;;;;;;;;;;;29.11;59.32;101006.06;5051159;28;70340;-37
2023/11/22 02:09:01;;;;;;;;;;;;;;;29.13;59.26;101012.13;5034961;28;67252;-38
2023/11/22 02:11:30;;;;;;;;;;;;;;;29.14;58.71;101014.63;5018173;28;69984;-37
2023/11/22 02:14:00;;;;;;;;;;;;;;;29.14;59.14;101021.88;5040912;28;65426;-37
2023/11/22 02:16:30;;;;;;;;;;;;;;;29.16;58.68;101020.63;5035351;28;69920;-37
2023/11/22 02:19:00;;;;;;;;;;;;;;;29.17;58.67;101016.09;5013936;28;66277;-36
2023/11/22 02:21:30;;;;;;;;;;;;;;;29.19;58.67;101016.69;5040653;28;69148;-37
2023/11/22 02:24:00;;;;;;;;;;;;;;;29.21;59.20;101011.91;5039990;28;66021;-37
2023/11/22 02:26:30;;;;;;;;;;;;;;;29.23;59.29;101003.63;5054099;28;70838;-37
2023/11/22 02:29:00;;;;;;;;;;;;;;;29.23;58.80;101009.84;5040368;28;65844;-37
2023/11/22 02:31:30;;;;;;;;;;;;;;;29.25;58.81;101002.34;5016997;28;70112;-38
2023/11/22 02:34:00;;;;;;;;;;;;;;;29.27;58.85;101000.28;5040709;28;65735;-37
2023/11/22 02:36:31;;;;;;;;;;;;;;;29.29;59.28;101003.63;5039731;28;70139;-37
2023/11/22 02:39:00;;;;;;;;;;;;;;;29.30;59.09;100999.88;5039464;28;67113;-36
2023/11/22 02:41:30;;;;;;;;;;;;;;;29.33;59.14;100998.63;5030727;28;70336;-38
2023/11/22 02:44:00;;;;;;;;;;;;;;;29.35;58.82;100991.16;5018198;28;65507;-37
2023/11/22 02:46:30;;;;;;;;;;;;;;;29.36;58.62;100993.66;5037654;28;70719;-37
2023/11/22 02:49:01;;;;;;;;;;;;;;;29.38;58.71;100991.56;5039806;28;67063;-37
2023/11/22 02:51:31;;;;;;;;;;;;;;;29.39;58.76;100987.84;5040226;28;70358;-36
2023/11/22 02:54:00;;;;;;;;;;;;;;;29.42;59.18;100980.31;5038588;28;66222;-36
2023/11/22 02:56:30;;;;;;;;;;;;;;;29.43;59.25;100988.25;5039914;28;69272;-37
2023/11/22 02:59:00;;;;;;;;;;;;;;;29.45;58.75;100969.97;5024476;28;65315;-38
2023/11/22 03:01:30;;;;;;;;;;;;;;;29.47;58.68;100964.31;5035828;28;70441;-37
2023/11/22 03:03:59;;;;;;;;;;;;;;;29.49;58.77;100967.66;5031637;28;66108;-37
2023/11/22 03:06:30;;;;;;;;;;;;;;;29.50;59.11;100961.19;5036657;28;70665;-37
2023/11/22 03:08:59;;;;;;;;;;;;;;;29.54;58.74;100959.75;5024917;28;67195;-39
2023/11/22 03:11:29;;;;;;;;;;;;;;;29.55;59.07;100958.72;5035106;28;69943;-38
2023/11/22 03:13:59;;;;;;;;;;;;;;;29.58;58.75;100952.88;5029856;28;66615;-37
2023/11/22 03:16:28;;;;;;;;;;;;;;;29.60;59.21;100945.41;5036032;28;70545;-37
2023/11/22 03:18:58;;;;;;;;;;;;;;;29.63;58.78;100950.41;5031773;28;67057;-37
2023/11/22 03:21:27;;;;;;;;;;;;;;;29.65;58.58;100937.53;5037137;28;70853;-37
2023/11/22 03:23:58;;;;;;;;;;;;;;;29.67;58.65;100923.78;5035599;28;64423;-37
2023/11/22 03:26:27;;;;;;;;;;;;;;;29.69;59.17;100927.94;5038568;28;70401;-37
2023/11/22 03:28:57;;;;;;;;;;;;;;;29.72;58.68;100932.09;5038405;28;65937;-37
2023/11/22 03:31:27;;;;;;;;;;;;;;;29.74;59.21;100919.19;5036353;28;69870;-38
2023/11/22 03:33:57;;;;;;;;;;;;;;;29.77;58.59;100913.38;5029456;28;66024;-37
2023/11/22 03:36:27;;;;;;;;;;;;;;;29.79;58.67;100909.41;5013774;28;69926;-37
2023/11/22 03:38:57;;;;;;;;;;;;;;;29.81;58.92;100904.63;5011727;28;65988;-37
2023/11/22 03:41:27;;;;;;;;;;;;;;;29.83;59.11;100905.22;5038648;28;69197;-37
2023/11/22 03:43:57;;;;;;;;;;;;;;;29.88;59.00;100903.78;5039718;28;66555;-37
2023/11/22 03:46:28;;;;;;;;;;;;;;;29.90;58.61;100893.59;5023538;28;68684;-40
2023/11/22 03:48:57;;;;;;;;;;;;;;;29.92;58.92;100888.78;5039065;28;66046;-37
2023/11/22 03:51:28;;;;;;;;;;;;;;;29.96;58.46;100895.44;5031164;28;69979;-37
2023/11/22 03:53:58;;;;;;;;;;;;;;;29.98;58.92;100871.72;5037115;28;65815;-37
2023/11/22 03:56:28;;;;;;;;;;;;;;;30.00;58.58;100869.59;5037829;28;70204;-38
2023/11/22 03:58:58;;;;;;;;;;;;;;;30.02;58.77;100872.94;5040820;28;66561;-38
2023/11/22 04:01:27;;;;;;;;;;;;;;;30.04;58.93;100862.72;5039269;28;70607;-39
2023/11/22 04:03:57;;;;;;;;;;;;;;;30.06;58.91;100858.75;5040565;28;66575;-39
2023/11/22 04:06:27;;;;;;;;;;;;;;;30.09;59.00;100853.94;5041370;28;70535;-38
2023/11/22 04:08:59;;;;;;;;;;;;;;;30.12;58.95;100848.97;5039418;28;66944;-37
2023/11/22 04:11:29;;;;;;;;;;;;;;;30.14;58.44;100849.56;5041651;28;69901;-37
2023/11/22 04:13:58;;;;;;;;;;;;;;;30.17;58.61;100841.03;5037123;28;65548;-38
2023/11/22 04:16:28;;;;;;;;;;;;;;;30.21;58.68;100833.28;5038785;28;70483;-37
2023/11/22 04:18:59;;;;;;;;;;;;;;;30.24;58.86;100830.19;5040799;28;66938;-37
2023/11/22 04:21:29;;;;;;;;;;;;;;;30.27;58.62;100816.22;5040674;28;70474;-37
2023/11/22 04:23:58;;;;;;;;;;;;;;;30.30;58.21;100804.13;5037228;28;65821;-38
2023/11/22 04:26:28;;;;;;;;;;;;;;;30.33;58.38;100803.69;5040022;28;69439;-38
2023/11/22 04:28:58;;;;;;;;;;;;;;;30.36;58.19;100801.38;5019824;28;65325;-38
2023/11/22 04:31:28;;;;;;;;;;;;;;;30.38;58.22;100785.75;5036942;28;70659;-40
2023/11/22 04:34:00;;;;;;;;;;;;;;;30.41;58.62;100789.91;5040170;28;66017;-38
2023/11/22 04:36:30;;;;;;;;;;;;;;;30.45;57.96;100780.28;5039645;28;70686;-40
2023/11/22 04:39:00;;;;;;;;;;;;;;;30.48;58.14;100779.88;5036885;28;67159;-38
2023/11/22 04:41:30;;;;;;;;;;;;;;;30.50;57.98;100769.63;5039397;28;69775;-37
2023/11/22 04:43:59;;;;;;;;;;;;;;;30.53;58.45;100766.47;5040677;28;66384;-37
2023/11/22 04:46:29;;;;;;;;;;;;;;;30.55;57.92;100761.69;5031596;28;70559;-37
2023/11/22 04:48:59;;;;;;;;;;;;;;;30.59;58.04;100762.91;5040550;28;66948;-37
2023/11/22 04:51:29;;;;;;;;;;;;;;;30.62;57.72;100758.91;5040432;28;69982;-37
2023/11/22 04:53:59;;;;;;;;;;;;;;;30.64;58.01;100752.22;5026170;28;66983;-39
2023/11/22 04:56:29;;;;;;;;;;;;;;;30.66;57.75;100744.72;5040201;28;69558;-36
2023/11/22 04:58:59;;;;;;;;;;;;;;;30.69;57.90;100738.84;5040300;28;66823;-37
2023/11/22 05:01:32;;;;;;;;;;;;;;;30.72;58.08;100743.81;5020604;28;70459;-38
2023/11/22 05:04:03;;;;;;;;;;;;;;;30.75;57.76;100736.31;5039665;28;66745;-36
2023/11/22 05:06:32;;;;;;;;;;;;;;;30.77;58.10;100731.50;5011794;28;69753;-38
2023/11/22 05:09:02;;;;;;;;;;;;;;;30.79;57.97;100727.53;5036900;28;67097;-36
2023/11/22 05:11:31;;;;;;;;;;;;;;;30.83;58.00;100719.81;5039712;28;70350;-37
2023/11/22 05:14:01;;;;;;;;;;;;;;;30.84;58.05;100714.19;5037718;28;65899;-37
2023/11/22 05:16:31;;;;;;;;;;;;;;;30.86;57.89;100711.22;5036572;28;70843;-37
2023/11/22 05:19:01;;;;;;;;;;;;;;;30.89;57.69;100710.78;5053617;28;66133;-37
2023/11/22 05:21:30;;;;;;;;;;;;;;;30.90;58.02;100707.84;5038309;28;70270;-38
2023/11/22 05:24:00;;;;;;;;;;;;;;;30.93;57.90;100701.16;5037365;28;67648;-37
2023/11/22 05:26:29;;;;;;;;;;;;;;;30.94;58.12;100691.97;5038637;28;69728;-37
2023/11/22 05:29:00;;;;;;;;;;;;;;;30.97;57.72;100680.69;5032998;28;66216;-37
2023/11/22 05:31:29;;;;;;;;;;;;;;;30.99;57.69;100683.19;5030464;28;70660;-37
2023/11/22 05:33:59;;;;;;;;;;;;;;;31.00;57.46;100674.81;5034394;28;66194;-37
2023/11/22 05:36:29;;;;;;;;;;;;;;;31.03;57.78;100678.94;5034654;28;70841;-37
2023/11/22 05:38:59;;;;;;;;;;;;;;;31.05;57.61;100674.97;5033298;28;66765;-37
2023/11/22 05:41:29;;;;;;;;;;;;;;;31.06;57.46;100663.06;5017056;28;70366;-38
2023/11/22 05:43:58;;;;;;;;;;;;;;;31.07;57.62;100659.31;5013488;28;66097;-38
2023/11/22 05:46:28;;;;;;;;;;;;;;;31.11;57.84;100659.69;5035244;28;70016;-38
2023/11/22 05:49:00;;;;;;;;;;;;;;;31.13;57.47;100655.69;5037877;28;66102;-38
2023/11/22 05:51:30;;;;;;;;;;;;;;;31.16;57.76;100646.28;5037935;28;70416;-38
2023/11/22 05:54:07;;;;;;;;;;;;;;;31.19;57.50;100645.00;5015775;28;66343;-38
2023/11/22 05:56:37;;;;;;;;;;;;;;;31.21;57.51;100637.50;5036492;28;69847;-40
2023/11/22 05:59:08;;;;;;;;;;;;;;;31.24;57.15;100645.16;5018615;28;66110;-37
2023/11/22 06:01:38;;;;;;;;;;;;;;;31.26;57.39;100637.59;5033426;28;70848;-37
2023/11/22 06:04:09;;;;;;;;;;;;;;;31.28;57.31;100627.38;5033793;28;66605;-38
2023/11/22 06:06:39;;;;;;;;;;;;;;;31.31;57.18;100629.63;5037870;28;69780;-38
2023/11/22 06:09:12;;;;;;;;;;;;;;;31.30;57.08;100609.81;5039859;28;66377;-37
2023/11/22 06:11:42;;;;;;;;;;;;;;;31.35;57.18;100617.28;5017558;28;70345;-38
2023/11/22 06:14:11;;;;;;;;;;;;;;;31.38;57.11;100617.66;5037826;28;66877;-37
2023/11/22 06:16:42;;;;;;;;;;;;;;;31.40;57.04;100609.31;5039219;28;70496;-38
2023/11/22 06:19:11;;;;;;;;;;;;;;;31.43;57.08;100608.84;5038866;28;66516;-37
2023/11/22 06:21:41;;;;;;;;;;;;;;;31.44;56.85;100594.22;5037432;28;70326;-40
2023/11/22 06:24:15;;;;;;;;;;;;;;;31.46;56.83;100597.53;5039228;28;66780;-37
2023/11/22 06:26:46;;;;;;;;;;;;;;;31.49;56.86;100591.66;5038625;28;69665;-37
2023/11/22 06:29:16;;;;;;;;;;;;;;;31.52;56.88;100588.47;5034275;28;66095;-39
2023/11/22 06:31:46;;;;;;;;;;;;;;;31.54;56.82;100577.41;5037746;28;69910;-37
2023/11/22 06:34:15;;;;;;;;;;;;;;;31.55;56.77;100579.88;5038518;28;66379;-37
2023/11/22 06:36:45;;;;;;;;;;;;;;;31.58;57.09;100574.00;5027895;28;70459;-38
2023/11/22 06:39:15;;;;;;;;;;;;;;;31.60;56.79;100576.47;5036972;28;66133;-38
2023/11/22 06:41:44;;;;;;;;;;;;;;;31.61;56.67;100568.09;5036305;28;69869;-37
2023/11/22 06:44:14;;;;;;;;;;;;;;;31.64;56.79;100568.72;5035750;28;67115;-39
2023/11/22 06:46:44;;;;;;;;;;;;;;;31.66;56.57;100563.88;5037055;28;69833;-37
2023/11/22 06:49:14;;;;;;;;;;;;;;;31.68;56.47;100561.75;5034521;28;66571;-36
2023/11/22 06:51:44;;;;;;;;;;;;;;;31.69;56.56;100555.28;5026762;28;70764;-36
2023/11/22 06:54:14;;;;;;;;;;;;;;;31.73;56.35;100548.31;5037462;28;65995;-37
2023/11/22 06:56:45;;;;;;;;;;;;;;;31.73;56.54;100543.75;5038359;28;70833;-37
2023/11/22 06:59:15;;;;;;;;;;;;;;;31.76;56.45;100542.41;5038553;28;66302;-38
2023/11/22 07:01:45;;;;;;;;;;;;;;;31.44;56.28;100485.81;5033096;28;70319;-37
2023/11/22 07:04:15;;;;;;;;;;;;;;;31.79;56.22;100533.84;5040763;28;66223;-37
2023/11/22 07:06:45;;;;;;;;;;;;;;;31.79;56.15;100531.94;5030865;28;70926;-37
2023/11/22 07:09:15;;;;;;;;;;;;;;;31.80;56.09;100528.16;5041286;28;66980;-37
2023/11/22 07:11:44;;;;;;;;;;;;;;;31.82;56.07;100527.94;5023654;28;69398;-36
2023/11/22 07:14:14;;;;;;;;;;;;;;;31.85;56.29;100530.19;5038616;28;66988;-38
2023/11/22 07:16:43;;;;;;;;;;;;;;;31.87;56.13;100538.06;5040171;28;70704;-37
2023/11/22 07:19:13;;;;;;;;;;;;;;;31.88;56.32;100534.31;5040020;28;66330;-37
2023/11/22 07:21:43;;;;;;;;;;;;;;;31.89;56.06;100539.47;5038510;28;70717;-38
2023/11/22 07:24:15;;;;;;;;;;;;;;;31.90;56.06;100530.31;5040060;28;65935;-37
2023/11/22 07:26:45;;;;;;;;;;;;;;;31.91;55.75;100531.97;5031824;28;70682;-37
2023/11/22 07:29:15;;;;;;;;;;;;;;;31.93;55.95;100535.28;5039925;28;66255;-37
2023/11/22 07:31:44;;;;;;;;;;;;;;;31.94;55.98;100534.22;5040154;28;70288;-38
2023/11/22 07:34:14;;;;;;;;;;;;;;;31.95;55.75;100545.88;5040782;28;65376;-37
2023/11/22 07:36:44;;;;;;;;;;;;;;;31.95;56.04;100540.47;5022776;28;70291;-37
2023/11/22 07:39:14;;;;;;;;;;;;;;;31.96;56.10;100542.94;5040956;28;66713;-36
2023/11/22 07:41:43;;;;;;;;;;;;;;;31.97;55.77;100539.16;5040842;28;70852;-37
2023/11/22 07:44:14;;;;;;;;;;;;;;;31.99;55.89;100544.38;5031363;28;67704;-37
2023/11/22 07:46:44;;;;;;;;;;;;;;;31.99;55.78;100547.09;5032494;28;71820;-37
2023/11/22 07:49:14;;;;;;;;;;;;;;;32.00;55.87;100544.13;5041186;28;67127;-37
2023/11/22 07:51:46;;;;;;;;;;;;;;;32.00;55.77;100544.13;5039604;28;70642;-37
2023/11/22 07:54:18;;;;;;;;;;;;;;;32.01;55.77;100540.34;5035602;28;67265;-37
2023/11/22 07:56:52;;;;;;;;;;;;;;;32.01;55.87;100543.06;5029544;28;70264;-38
2023/11/22 07:59:22;;;;;;;;;;;;;;;32.03;55.87;100543.63;5041866;28;65868;-38
2023/11/22 08:01:53;;;;;;;;;;;;;;;32.02;55.77;100542.00;5040494;28;70319;-38
2023/11/22 08:04:23;;;;;;;;;;;;;;;32.02;55.65;100542.00;5036600;28;65475;-38
2023/11/22 08:06:56;;;;;;;;;;;;;;;32.03;55.76;100542.81;5040699;28;69744;-38
2023/11/22 08:09:26;;;;;;;;;;;;;;;32.03;55.65;100543.63;5039296;28;66068;-38
2023/11/22 08:11:56;;;;;;;;;;;;;;;32.00;55.69;100530.56;5037865;28;70718;-38
2023/11/22 08:14:27;;;;;;;;;;;;;;;32.03;55.85;100543.63;5039864;28;66122;-38
2023/11/22 08:16:57;;;;;;;;;;;;;;;32.02;55.84;100535.75;5040629;28;70545;-38
2023/11/22 08:19:27;;;;;;;;;;;;;;;32.01;55.77;100540.34;5054457;28;65656;-38
2023/11/22 08:21:57;;;;;;;;;;;;;;;32.02;55.62;100542.00;5039781;28;70375;-38
2023/11/22 08:24:26;;;;;;;;;;;;;;;32.01;55.82;100534.94;5040761;28;66587;-37
2023/11/22 08:26:58;;;;;;;;;;;;;;;32.02;55.81;100542.00;5037821;28;70553;-37
2023/11/22 08:29:28;;;;;;;;;;;;;;;32.01;55.71;100540.34;5040911;28;66652;-38
2023/11/22 08:31:58;;;;;;;;;;;;;;;32.02;55.82;100542.00;5039617;28;70522;-38
2023/11/22 08:34:27;;;;;;;;;;;;;;;32.03;55.71;100537.41;5038724;28;66547;-38
2023/11/22 08:36:57;;;;;;;;;;;;;;;32.02;55.74;100536.56;5028830;28;69269;-38
2023/11/22 08:39:27;;;;;;;;;;;;;;;32.02;55.59;100533.03;5040825;28;66916;-38
2023/11/22 08:41:58;;;;;;;;;;;;;;;32.02;55.88;100531.16;5038329;28;69793;-38
2023/11/22 08:44:28;;;;;;;;;;;;;;;32.02;55.87;100533.84;5040226;28;66033;-37
2023/11/22 08:46:57;;;;;;;;;;;;;;;32.02;55.63;100533.03;5040834;28;69996;-39
2023/11/22 08:49:27;;;;;;;;;;;;;;;32.02;55.65;100531.16;5038227;28;66517;-38
2023/11/22 08:51:59;;;;;;;;;;;;;;;32.01;55.83;100537.66;5040737;28;70415;-37
2023/11/22 08:54:29;;;;;;;;;;;;;;;32.01;55.93;100534.94;5039221;28;66098;-37
2023/11/22 08:57:02;;;;;;;;;;;;;;;32.00;55.95;100527.84;5039483;28;70024;-38
2023/11/22 08:59:37;;;;;;;;;;;;;;;32.01;55.69;100529.50;5040194;28;66299;-38
2023/11/22 09:02:08;;;;;;;;;;;;;;;32.00;55.78;100527.84;5036375;28;70687;-37
2023/11/22 09:04:38;;;;;;;;;;;;;;;32.02;55.81;100536.56;5038839;28;66028;-37
2023/11/22 09:07:07;;;;;;;;;;;;;;;32.01;55.60;100529.50;5040541;28;69859;-38
2023/11/22 09:09:37;;;;;;;;;;;;;;;32.01;55.84;100529.50;5036903;28;65590;-38
2023/11/22 09:12:12;;;;;;;;;;;;;;;32.02;55.81;100525.72;5039485;28;70378;-37
2023/11/22 09:14:42;;;;;;;;;;;;;;;32.02;55.69;100536.56;5038778;28;66154;-36
2023/11/22 09:17:13;;;;;;;;;;;;;;;31.74;58.87;100547.28;5037423;28;70431;-37
2023/11/22 09:19:43;;;;;;;;;;;;;;;31.66;59.63;100537.59;5037677;28;66289;-38
2023/11/22 09:22:13;;;;;;;;;;;;;;;31.80;58.95;100539.00;5038410;28;70440;-38
2023/11/22 09:24:44;;;;;;;;;;;;;;;31.87;58.71;100533.47;5047225;28;66277;-37
2023/11/22 09:27:17;;;;;;;;;;;;;;;31.91;58.74;100548.25;5039471;28;70306;-36
2023/11/22 09:29:48;;;;;;;;;;;;;;;31.94;58.38;100553.19;5040038;28;65790;-36
2023/11/22 09:32:18;;;;;;;;;;;;;;;31.95;58.27;100557.56;5038885;28;69428;-37
2023/11/22 09:34:47;;;;;;;;;;;;;;;31.97;58.25;100560.03;5039041;28;65726;-38
2023/11/22 09:37:18;;;;;;;;;;;;;;;31.81;57.92;100539.84;5039530;28;70052;-36
2023/11/22 09:39:48;;;;;;;;;;;;;;;31.98;58.13;100562.53;5036399;28;66515;-37
2023/11/22 09:42:18;;;;;;;;;;;;;;;31.99;58.23;100566.88;5039510;28;70290;-37
2023/11/22 09:44:47;;;;;;;;;;;;;;;32.00;58.19;100562.28;5031608;28;66664;-37
2023/11/22 09:47:19;;;;;;;;;;;;;;;32.00;58.11;100565.00;5039291;28;69969;-37
2023/11/22 09:49:52;;;;;;;;;;;;;;;31.99;58.04;100575.03;5038901;28;66519;-37
2023/11/22 09:52:23;;;;;;;;;;;;;;;32.00;58.06;100565.81;5032615;28;70310;-41
2023/11/22 09:54:56;;;;;;;;;;;;;;;32.00;57.99;100571.25;5038586;28;66133;-37
2023/11/22 09:57:26;;;;;;;;;;;;;;;32.01;58.17;100572.91;5036424;28;69753;-38
2023/11/22 09:59:57;;;;;;;;;;;;;;;32.01;58.22;100581.06;5031465;28;65430;-38
2023/11/22 10:02:28;;;;;;;;;;;;;;;32.00;58.66;100581.28;5033414;28;71535;-40
2023/11/22 10:04:58;;;;;;;;;;;;;;;31.99;58.72;100591.31;5032431;28;66676;-37
2023/11/22 10:07:27;;;;;;;;;;;;;;;31.99;58.69;100594.03;5022793;28;68940;-46
2023/11/22 10:10:01;;;;;;;;;;;;;;;31.99;58.72;100607.59;5028465;28;65606;-37
2023/11/22 10:12:31;;;;;;;;;;;;;;;31.98;59.26;100611.38;5035510;28;70733;-38
2023/11/22 10:15:18;;;;;;;;;;;;;;;31.99;58.93;100618.44;5038778;28;66355;-38
2023/11/22 10:17:56;;;;;;;;;;;;;;;31.70;61.72;100619.28;5031188;28;70539;-38
2023/11/22 10:20:55;;;;;;;;;;;;;;;31.52;63.18;100621.00;5039015;28;65998;-39
2023/11/22 10:23:28;;;;;;;;;;;;;;;31.46;63.60;100632.78;5038901;28;69498;-40
2023/11/22 10:25:58;;;;;;;;;;;;;;;31.41;64.07;100626.41;5038559;28;67215;-39
2023/11/22 10:28:30;;;;;;;;;;;;;;;31.35;64.84;100639.78;5017089;28;69032;-38
2023/11/22 10:31:00;;;;;;;;;;;;;;;31.33;64.86;100641.06;5028759;28;66553;-38
2023/11/22 10:33:30;;;;;;;;;;;;;;;31.29;65.19;100639.88;5042680;28;70940;-38
2023/11/22 10:36:02;;;;;;;;;;;;;;;31.31;65.13;100649.41;5043246;28;65994;-36
2023/11/22 10:38:33;;;;;;;;;;;;;;;31.31;65.52;100665.66;5041951;28;69949;-37
2023/11/22 10:41:04;;;;;;;;;;;;;;;31.31;65.56;100664.84;5043226;28;65341;-37
2023/11/22 10:43:36;;;;;;;;;;;;;;;31.31;65.83;100667.56;5018310;28;68748;-38
2023/11/22 10:46:06;;;;;;;;;;;;;;;31.28;66.15;100670.72;5032847;28;66152;-38
2023/11/22 10:48:36;;;;;;;;;;;;;;;31.29;66.32;100677.81;5038644;28;70846;-37
2023/11/22 10:51:07;;;;;;;;;;;;;;;31.29;66.54;100677.81;5026808;28;66814;-38
2023/11/22 10:53:40;;;;;;;;;;;;;;;31.29;66.46;100673.22;5037960;28;70490;-37
2023/11/22 10:56:11;;;;;;;;;;;;;;;31.28;66.41;100676.16;5041235;28;66392;-38
2023/11/22 10:58:47;;;;;;;;;;;;;;;31.28;66.78;100676.16;5039613;28;69888;-36
2023/11/22 11:01:17;;;;;;;;;;;;;;;31.31;67.06;100681.09;5035257;28;66995;-38
2023/11/22 11:04:06;;;;;;;;;;;;;;;31.49;65.42;100686.53;5032736;28;70723;-37
2023/11/22 11:06:36;;;;;;;;;;;;;;;31.59;64.97;100692.25;5039471;28;66248;-37
2023/11/22 11:09:11;;;;;;;;;;;;;;;31.65;64.29;100687.78;5040475;28;69645;-37
2023/11/22 11:11:41;;;;;;;;;;;;;;;31.47;66.53;100694.06;5039221;28;66334;-37
2023/11/22 11:14:13;;;;;;;;;;;;;;;31.41;67.22;100703.13;5038853;28;70727;-38
2023/11/22 11:16:49;;;;;;;;;;;;;;;31.35;67.85;100695.88;5040145;28;65689;-38
2023/11/22 11:19:20;;;;;;;;;;;;;;;31.30;67.68;100701.97;5039608;28;69891;-37
2023/11/22 11:21:52;;;;;;;;;;;;;;;31.30;68.24;100704.69;5040006;28;65119;-37
2023/11/22 11:24:21;;;;;;;;;;;;;;;31.30;68.22;100707.38;5039286;28;70328;-37
2023/11/22 11:26:54;;;;;;;;;;;;;;;31.27;68.50;100712.44;5039681;28;66039;-36
2023/11/22 11:29:30;;;;;;;;;;;;;;;31.36;67.47;100720.06;5039977;28;70034;-36
2023/11/22 11:32:02;;;;;;;;;;;;;;;31.49;66.42;100716.34;5037978;28;66201;-37
2023/11/22 11:34:32;;;;;;;;;;;;;;;31.58;65.90;100719.59;5038991;28;69132;-37
2023/11/22 11:37:03;;;;;;;;;;;;;;;31.61;65.64;100714.53;5041170;28;66272;-37
2023/11/22 11:39:33;;;;;;;;;;;;;;;31.67;65.57;100728.22;5036948;28;69030;-37
2023/11/22 11:42:13;;;;;;;;;;;;;;;31.69;65.16;100726.13;5036891;28;66198;-37
2023/11/22 11:45:06;;;;;;;;;;;;;;;31.72;65.06;100731.06;5039815;28;70537;-38
2023/11/22 11:47:36;;;;;;;;;;;;;;;31.74;65.10;100734.41;5039860;28;65866;-38
2023/11/22 11:50:06;;;;;;;;;;;;;;;31.74;65.03;100740.63;5040391;28;71230;-36
2023/11/22 11:52:38;;;;;;;;;;;;;;;31.75;65.17;100741.47;5042411;28;66599;-39
2023/11/22 11:55:08;;;;;;;;;;;;;;;31.75;64.74;100741.47;5044938;28;69241;-38
2023/11/22 11:57:38;;;;;;;;;;;;;;;31.75;64.90;100746.88;5049645;28;67129;-39
2023/11/22 12:00:09;;;;;;;;;;;;;;;31.75;64.72;100747.72;5041176;28;69838;-38
2023/11/22 12:02:38;;;;;;;;;;;;;;;31.75;64.56;100757.72;5042523;28;66559;-39
2023/11/22 12:05:08;;;;;;;;;;;;;;;31.75;64.86;100758.56;5040416;28;69737;-38
2023/11/22 12:07:38;;;;;;;;;;;;;;;31.74;64.79;100766.94;5041795;28;66074;-38
2023/11/22 12:10:10;;;;;;;;;;;;;;;31.74;64.63;100767.75;5041506;28;69860;-38
2023/11/22 12:12:43;;;;;;;;;;;;;;;31.74;64.43;100767.75;5041516;28;66171;-39
2023/11/22 12:15:14;;;;;;;;;;;;;;;31.74;64.45;100772.38;5042078;28;70345;-37
2023/11/22 12:17:44;;;;;;;;;;;;;;;31.73;64.51;100774.25;5041929;28;66871;-38
2023/11/22 12:20:17;;;;;;;;;;;;;;;31.74;64.49;100783.22;5041796;28;69862;-38
2023/11/22 12:22:48;;;;;;;;;;;;;;;31.72;64.59;100779.88;5040864;28;66009;-37
2023/11/22 12:25:19;;;;;;;;;;;;;;;31.72;64.45;100793.44;5041935;28;70380;-39
2023/11/22 12:27:49;;;;;;;;;;;;;;;31.72;64.29;100796.16;5039982;28;65549;-38
2023/11/22 12:30:29;;;;;;;;;;;;;;;31.71;64.19;100805.38;5041220;28;69976;-37
2023/11/22 12:33:04;;;;;;;;;;;;;;;31.69;64.48;100802.88;5041236;28;66241;-38
2023/11/22 12:35:34;;;;;;;;;;;;;;;31.69;64.43;100796.63;5041100;28;70186;-38
2023/11/22 12:38:06;;;;;;;;;;;;;;;31.70;64.38;100803.69;5042015;28;66541;-42
2023/11/22 12:40:36;;;;;;;;;;;;;;;31.68;64.42;100816.63;5040505;28;70195;-38
2023/11/22 12:43:08;;;;;;;;;;;;;;;31.67;64.38;100815.00;5041043;28;66898;-37
2023/11/22 12:45:38;;;;;;;;;;;;;;;31.66;64.27;100816.06;5055167;28;70122;-40
2023/11/22 12:48:23;;;;;;;;;;;;;;;31.65;64.32;100823.38;5042143;28;67501;-38
2023/11/22 12:50:54;;;;;;;;;;;;;;;31.47;66.75;100820.66;5025284;28;69659;-40
2023/11/22 12:53:30;;;;;;;;;;;;;;;31.30;67.84;100821.22;5040357;28;65543;-37